sensor_id;sensor_type;location;lat;lon;timestamp;temperature;humidity
38788;DHT22;24536;45.488;12.238;2023-03-23T00:01:07;16.40;76.80
38788;DHT22;24536;45.488;12.238;2023-03-23T00:03:36;16.30;76.90
38788;DHT22;24536;45.488;12.238;2023-03-23T00:06:02;16.40;76.90
38788;DHT22;24536;45.488;12.238;2023-03-23T00:08:38;16.30;76.90
38788;DHT22;24536;45.488;12.238;2023-03-23T00:11:15;16.30;76.50
38788;DHT22;24536;45.488;12.238;2023-03-23T00:13:43;16.30;77.00
38788;DHT22;24536;45.488;12.238;2023-03-23T00:16:10;16.30;77.20
38788;DHT22;24536;45.488;12.238;2023-03-23T00:18:49;16.30;77.20
38788;DHT22;24536;45.488;12.238;2023-03-23T00:21:22;16.30;77.20
38788;DHT22;24536;45.488;12.238;2023-03-23T00:23:51;16.30;77.50
38788;DHT22;24536;45.488;12.238;2023-03-23T00:26:17;16.30;77.50
38788;DHT22;24536;45.488;12.238;2023-03-23T00:28:43;16.30;77.10
38788;DHT22;24536;45.488;12.238;2023-03-23T00:31:12;16.20;77.60
38788;DHT22;24536;45.488;12.238;2023-03-23T00:33:38;16.20;77.30
38788;DHT22;24536;45.488;12.238;2023-03-23T00:36:10;16.20;77.40
38788;DHT22;24536;45.488;12.238;2023-03-23T00:38:37;16.50;78.00
38788;DHT22;24536;45.488;12.238;2023-03-23T00:41:04;16.20;77.90
38788;DHT22;24536;45.488;12.238;2023-03-23T00:43:32;16.20;77.90
38788;DHT22;24536;45.488;12.238;2023-03-23T00:46:01;16.10;77.20
38788;DHT22;24536;45.488;12.238;2023-03-23T00:48:33;16.20;77.60
38788;DHT22;24536;45.488;12.238;2023-03-23T00:51:02;16.10;77.60
38788;DHT22;24536;45.488;12.238;2023-03-23T00:53:32;16.10;77.80
38788;DHT22;24536;45.488;12.238;2023-03-23T00:55:58;16.10;77.80
38788;DHT22;24536;45.488;12.238;2023-03-23T00:58:24;16.10;77.80
38788;DHT22;24536;45.488;12.238;2023-03-23T01:00:50;16.10;77.90
38788;DHT22;24536;45.488;12.238;2023-03-23T01:03:17;16.10;77.30
38788;DHT22;24536;45.488;12.238;2023-03-23T01:05:44;16.10;77.70
38788;DHT22;24536;45.488;12.238;2023-03-23T01:08:13;16.10;77.40
38788;DHT22;24536;45.488;12.238;2023-03-23T01:10:39;16.10;77.10
38788;DHT22;24536;45.488;12.238;2023-03-23T01:13:06;16.10;77.00
38788;DHT22;24536;45.488;12.238;2023-03-23T01:15:32;16.10;76.80
38788;DHT22;24536;45.488;12.238;2023-03-23T01:17:58;16.10;76.60
38788;DHT22;24536;45.488;12.238;2023-03-23T01:20:24;16.10;76.50
38788;DHT22;24536;45.488;12.238;2023-03-23T01:22:52;16.20;76.40
38788;DHT22;24536;45.488;12.238;2023-03-23T01:25:19;16.10;75.70
38788;DHT22;24536;45.488;12.238;2023-03-23T01:27:45;16.20;76.10
38788;DHT22;24536;45.488;12.238;2023-03-23T01:30:12;16.20;76.10
38788;DHT22;24536;45.488;12.238;2023-03-23T01:32:38;16.20;75.70
38788;DHT22;24536;45.488;12.238;2023-03-23T01:35:05;16.20;76.10
38788;DHT22;24536;45.488;12.238;2023-03-23T01:37:31;16.20;76.10
38788;DHT22;24536;45.488;12.238;2023-03-23T01:39:58;16.20;76.00
38788;DHT22;24536;45.488;12.238;2023-03-23T01:42:33;16.10;76.00
38788;DHT22;24536;45.488;12.238;2023-03-23T01:48:21;16.10;76.30
38788;DHT22;24536;45.488;12.238;2023-03-23T01:53:26;16.00;76.80
38788;DHT22;24536;45.488;12.238;2023-03-23T01:55:55;16.00;77.20
38788;DHT22;24536;45.488;12.238;2023-03-23T01:58:26;16.00;77.70
38788;DHT22;24536;45.488;12.238;2023-03-23T02:00:57;16.00;78.80
38788;DHT22;24536;45.488;12.238;2023-03-23T02:03:27;16.00;78.60
38788;DHT22;24536;45.488;12.238;2023-03-23T02:05:53;16.00;78.80
38788;DHT22;24536;45.488;12.238;2023-03-23T02:08:20;16.00;79.00
38788;DHT22;24536;45.488;12.238;2023-03-23T02:10:47;15.90;79.00
38788;DHT22;24536;45.488;12.238;2023-03-23T02:13:13;15.90;79.10
38788;DHT22;24536;45.488;12.238;2023-03-23T02:15:52;15.90;79.30
38788;DHT22;24536;45.488;12.238;2023-03-23T02:27:25;15.80;79.70
38788;DHT22;24536;45.488;12.238;2023-03-23T02:30:10;15.70;79.90
38788;DHT22;24536;45.488;12.238;2023-03-23T02:35:45;15.70;79.80
38788;DHT22;24536;45.488;12.238;2023-03-23T02:38:20;15.60;79.60
38788;DHT22;24536;45.488;12.238;2023-03-23T02:40:48;15.60;79.50
38788;DHT22;24536;45.488;12.238;2023-03-23T02:43:18;15.50;79.00
38788;DHT22;24536;45.488;12.238;2023-03-23T02:45:45;15.50;79.30
38788;DHT22;24536;45.488;12.238;2023-03-23T02:48:14;15.50;78.90
38788;DHT22;24536;45.488;12.238;2023-03-23T02:50:45;15.40;79.40
38788;DHT22;24536;45.488;12.238;2023-03-23T02:53:14;15.30;78.90
38788;DHT22;24536;45.488;12.238;2023-03-23T02:55:42;15.30;79.40
38788;DHT22;24536;45.488;12.238;2023-03-23T02:58:10;15.30;79.50
38788;DHT22;24536;45.488;12.238;2023-03-23T03:00:37;15.20;79.40
38788;DHT22;24536;45.488;12.238;2023-03-23T03:03:04;15.10;79.30
38788;DHT22;24536;45.488;12.238;2023-03-23T03:11:06;15.00;79.40
38788;DHT22;24536;45.488;12.238;2023-03-23T03:13:59;15.00;79.30
38788;DHT22;24536;45.488;12.238;2023-03-23T03:19:09;14.90;79.80
38788;DHT22;24536;45.488;12.238;2023-03-23T03:21:39;14.90;80.00
38788;DHT22;24536;45.488;12.238;2023-03-23T03:24:07;14.80;80.10
38788;DHT22;24536;45.488;12.238;2023-03-23T03:26:41;14.80;80.20
38788;DHT22;24536;45.488;12.238;2023-03-23T03:29:16;14.80;80.40
38788;DHT22;24536;45.488;12.238;2023-03-23T03:31:44;14.80;80.40
38788;DHT22;24536;45.488;12.238;2023-03-23T03:34:12;14.80;80.30
38788;DHT22;24536;45.488;12.238;2023-03-23T03:36:45;14.80;79.90
38788;DHT22;24536;45.488;12.238;2023-03-23T03:39:12;14.90;80.40
38788;DHT22;24536;45.488;12.238;2023-03-23T03:41:41;14.80;79.80
38788;DHT22;24536;45.488;12.238;2023-03-23T03:44:07;14.80;79.90
38788;DHT22;24536;45.488;12.238;2023-03-23T03:46:34;14.80;80.30
38788;DHT22;24536;45.488;12.238;2023-03-23T03:49:02;14.80;80.00
38788;DHT22;24536;45.488;12.238;2023-03-23T03:51:29;14.90;80.50
38788;DHT22;24536;45.488;12.238;2023-03-23T03:53:55;14.90;80.40
38788;DHT22;24536;45.488;12.238;2023-03-23T03:56:21;14.90;80.50
38788;DHT22;24536;45.488;12.238;2023-03-23T03:58:51;14.90;80.60
38788;DHT22;24536;45.488;12.238;2023-03-23T04:01:18;14.80;80.70
38788;DHT22;24536;45.488;12.238;2023-03-23T04:03:44;14.80;80.90
38788;DHT22;24536;45.488;12.238;2023-03-23T04:06:10;14.90;81.20
38788;DHT22;24536;45.488;12.238;2023-03-23T04:08:38;14.90;81.30
38788;DHT22;24536;45.488;12.238;2023-03-23T04:11:04;14.90;81.20
38788;DHT22;24536;45.488;12.238;2023-03-23T04:13:30;14.90;81.30
38788;DHT22;24536;45.488;12.238;2023-03-23T04:15:56;14.90;81.40
38788;DHT22;24536;45.488;12.238;2023-03-23T04:18:22;14.90;81.10
38788;DHT22;24536;45.488;12.238;2023-03-23T04:20:50;14.90;81.70
38788;DHT22;24536;45.488;12.238;2023-03-23T04:23:17;14.90;81.90
38788;DHT22;24536;45.488;12.238;2023-03-23T04:25:48;14.90;82.10
38788;DHT22;24536;45.488;12.238;2023-03-23T04:28:14;14.90;82.20
38788;DHT22;24536;45.488;12.238;2023-03-23T04:30:42;14.90;82.00
38788;DHT22;24536;45.488;12.238;2023-03-23T04:33:09;14.80;82.50
38788;DHT22;24536;45.488;12.238;2023-03-23T04:35:41;14.90;82.70
38788;DHT22;24536;45.488;12.238;2023-03-23T04:38:08;14.90;83.40
38788;DHT22;24536;45.488;12.238;2023-03-23T04:40:39;14.80;82.90
38788;DHT22;24536;45.488;12.238;2023-03-23T04:43:06;14.90;82.90
38788;DHT22;24536;45.488;12.238;2023-03-23T04:45:33;14.90;83.00
38788;DHT22;24536;45.488;12.238;2023-03-23T04:47:59;14.90;83.00
38788;DHT22;24536;45.488;12.238;2023-03-23T04:50:30;14.90;83.00
38788;DHT22;24536;45.488;12.238;2023-03-23T04:52:58;14.90;83.10
38788;DHT22;24536;45.488;12.238;2023-03-23T04:55:33;14.90;83.30
38788;DHT22;24536;45.488;12.238;2023-03-23T04:58:06;14.80;83.20
38788;DHT22;24536;45.488;12.238;2023-03-23T05:00:33;14.80;83.30
38788;DHT22;24536;45.488;12.238;2023-03-23T05:02:59;14.80;83.30
38788;DHT22;24536;45.488;12.238;2023-03-23T05:05:26;14.80;83.30
38788;DHT22;24536;45.488;12.238;2023-03-23T05:07:53;14.80;83.30
38788;DHT22;24536;45.488;12.238;2023-03-23T05:10:18;14.70;83.10
38788;DHT22;24536;45.488;12.238;2023-03-23T05:12:44;14.70;83.10
38788;DHT22;24536;45.488;12.238;2023-03-23T05:15:12;14.60;82.90
38788;DHT22;24536;45.488;12.238;2023-03-23T05:17:38;14.50;82.60
38788;DHT22;24536;45.488;12.238;2023-03-23T05:20:06;14.50;83.00
38788;DHT22;24536;45.488;12.238;2023-03-23T05:22:36;14.60;83.10
38788;DHT22;24536;45.488;12.238;2023-03-23T05:25:04;14.60;83.20
38788;DHT22;24536;45.488;12.238;2023-03-23T05:27:30;14.60;83.10
38788;DHT22;24536;45.488;12.238;2023-03-23T05:29:58;14.60;83.10
38788;DHT22;24536;45.488;12.238;2023-03-23T05:32:27;14.60;83.10
38788;DHT22;24536;45.488;12.238;2023-03-23T05:35:00;14.60;82.50
38788;DHT22;24536;45.488;12.238;2023-03-23T05:37:27;14.60;83.10
38788;DHT22;24536;45.488;12.238;2023-03-23T05:39:59;14.60;82.90
38788;DHT22;24536;45.488;12.238;2023-03-23T05:42:31;14.60;83.30
38788;DHT22;24536;45.488;12.238;2023-03-23T05:44:58;14.60;83.50
38788;DHT22;24536;45.488;12.238;2023-03-23T05:47:24;14.60;83.60
38788;DHT22;24536;45.488;12.238;2023-03-23T05:49:51;14.60;83.60
38788;DHT22;24536;45.488;12.238;2023-03-23T05:52:17;14.50;83.40
38788;DHT22;24536;45.488;12.238;2023-03-23T05:54:43;14.50;83.40
38788;DHT22;24536;45.488;12.238;2023-03-23T05:57:10;14.50;83.20
38788;DHT22;24536;45.488;12.238;2023-03-23T05:59:36;14.50;83.60
38788;DHT22;24536;45.488;12.238;2023-03-23T06:02:02;14.60;83.40
38788;DHT22;24536;45.488;12.238;2023-03-23T06:04:28;14.60;82.80
38788;DHT22;24536;45.488;12.238;2023-03-23T06:09:21;14.60;82.90
38788;DHT22;24536;45.488;12.238;2023-03-23T06:11:49;14.60;83.80
38788;DHT22;24536;45.488;12.238;2023-03-23T06:14:14;14.60;83.20
38788;DHT22;24536;45.488;12.238;2023-03-23T06:16:41;14.70;83.20
38788;DHT22;24536;45.488;12.238;2023-03-23T06:24:18;14.70;81.90
38788;DHT22;24536;45.488;12.238;2023-03-23T06:26:43;14.70;82.50
38788;DHT22;24536;45.488;12.238;2023-03-23T06:29:10;14.70;82.50
38788;DHT22;24536;45.488;12.238;2023-03-23T06:31:45;14.70;82.60
38788;DHT22;24536;45.488;12.238;2023-03-23T06:34:13;14.70;82.90
38788;DHT22;24536;45.488;12.238;2023-03-23T06:36:38;14.70;82.90
38788;DHT22;24536;45.488;12.238;2023-03-23T06:39:06;14.80;82.90
38788;DHT22;24536;45.488;12.238;2023-03-23T06:41:32;14.80;82.60
38788;DHT22;24536;45.488;12.238;2023-03-23T06:43:59;14.90;82.60
38788;DHT22;24536;45.488;12.238;2023-03-23T06:46:25;15.00;82.50
38788;DHT22;24536;45.488;12.238;2023-03-23T06:48:51;15.10;82.50
38788;DHT22;24536;45.488;12.238;2023-03-23T06:51:17;15.10;82.30
38788;DHT22;24536;45.488;12.238;2023-03-23T06:53:43;15.20;82.20
38788;DHT22;24536;45.488;12.238;2023-03-23T06:56:09;15.30;82.10
38788;DHT22;24536;45.488;12.238;2023-03-23T06:58:36;15.30;82.10
38788;DHT22;24536;45.488;12.238;2023-03-23T07:01:03;15.40;82.20
38788;DHT22;24536;45.488;12.238;2023-03-23T07:03:29;15.40;82.10
38788;DHT22;24536;45.488;12.238;2023-03-23T07:05:57;15.60;82.00
38788;DHT22;24536;45.488;12.238;2023-03-23T07:08:22;15.60;81.90
38788;DHT22;24536;45.488;12.238;2023-03-23T07:10:51;15.60;82.00
38788;DHT22;24536;45.488;12.238;2023-03-23T07:13:18;15.60;81.90
38788;DHT22;24536;45.488;12.238;2023-03-23T07:15:43;15.60;81.50
38788;DHT22;24536;45.488;12.238;2023-03-23T07:18:10;15.50;82.10
38788;DHT22;24536;45.488;12.238;2023-03-23T07:20:36;15.40;82.10
38788;DHT22;24536;45.488;12.238;2023-03-23T07:23:02;15.50;82.10
38788;DHT22;24536;45.488;12.238;2023-03-23T07:25:31;15.50;82.10
38788;DHT22;24536;45.488;12.238;2023-03-23T07:28:02;15.60;82.00
38788;DHT22;24536;45.488;12.238;2023-03-23T07:30:29;15.70;81.80
38788;DHT22;24536;45.488;12.238;2023-03-23T07:32:56;15.80;81.90
38788;DHT22;24536;45.488;12.238;2023-03-23T07:35:22;15.90;81.80
38788;DHT22;24536;45.488;12.238;2023-03-23T07:37:48;15.90;81.40
38788;DHT22;24536;45.488;12.238;2023-03-23T07:40:15;16.00;81.40
38788;DHT22;24536;45.488;12.238;2023-03-23T07:42:45;15.90;81.30
38788;DHT22;24536;45.488;12.238;2023-03-23T07:45:12;15.80;82.00
38788;DHT22;24536;45.488;12.238;2023-03-23T07:47:39;15.70;82.40
38788;DHT22;24536;45.488;12.238;2023-03-23T07:50:05;15.70;82.60
38788;DHT22;24536;45.488;12.238;2023-03-23T07:52:32;15.70;82.60
38788;DHT22;24536;45.488;12.238;2023-03-23T07:54:58;15.80;82.30
38788;DHT22;24536;45.488;12.238;2023-03-23T07:57:24;15.90;82.30
38788;DHT22;24536;45.488;12.238;2023-03-23T07:59:50;16.00;82.30
38788;DHT22;24536;45.488;12.238;2023-03-23T08:02:16;16.10;82.20
38788;DHT22;24536;45.488;12.238;2023-03-23T08:04:41;16.30;82.20
38788;DHT22;24536;45.488;12.238;2023-03-23T08:07:08;16.40;82.10
38788;DHT22;24536;45.488;12.238;2023-03-23T08:09:33;16.50;81.90
38788;DHT22;24536;45.488;12.238;2023-03-23T08:11:59;16.70;81.90
38788;DHT22;24536;45.488;12.238;2023-03-23T08:14:25;16.80;81.70
38788;DHT22;24536;45.488;12.238;2023-03-23T08:16:53;16.90;81.60
38788;DHT22;24536;45.488;12.238;2023-03-23T08:19:22;16.90;81.20
38788;DHT22;24536;45.488;12.238;2023-03-23T08:21:48;17.00;81.00
38788;DHT22;24536;45.488;12.238;2023-03-23T08:24:14;17.10;80.90
38788;DHT22;24536;45.488;12.238;2023-03-23T08:26:39;17.10;80.60
38788;DHT22;24536;45.488;12.238;2023-03-23T08:29:05;17.20;80.40
38788;DHT22;24536;45.488;12.238;2023-03-23T08:31:32;17.30;80.20
38788;DHT22;24536;45.488;12.238;2023-03-23T08:34:00;17.30;80.00
38788;DHT22;24536;45.488;12.238;2023-03-23T08:36:26;17.40;80.00
38788;DHT22;24536;45.488;12.238;2023-03-23T08:38:53;17.50;79.30
38788;DHT22;24536;45.488;12.238;2023-03-23T08:41:19;17.50;78.40
38788;DHT22;24536;45.488;12.238;2023-03-23T08:43:45;17.60;78.70
38788;DHT22;24536;45.488;12.238;2023-03-23T08:46:12;17.60;78.80
38788;DHT22;24536;45.488;12.238;2023-03-23T08:48:38;17.70;78.70
38788;DHT22;24536;45.488;12.238;2023-03-23T08:51:05;17.80;78.40
38788;DHT22;24536;45.488;12.238;2023-03-23T08:53:32;17.90;78.00
38788;DHT22;24536;45.488;12.238;2023-03-23T08:56:09;17.90;77.80
38788;DHT22;24536;45.488;12.238;2023-03-23T08:58:36;18.00;77.60
38788;DHT22;24536;45.488;12.238;2023-03-23T09:01:03;18.10;77.50
38788;DHT22;24536;45.488;12.238;2023-03-23T09:03:30;18.10;77.00
38788;DHT22;24536;45.488;12.238;2023-03-23T09:06:04;18.10;76.00
38788;DHT22;24536;45.488;12.238;2023-03-23T09:08:31;18.10;76.10
38788;DHT22;24536;45.488;12.238;2023-03-23T09:11:05;18.20;76.60
38788;DHT22;24536;45.488;12.238;2023-03-23T09:13:33;18.20;76.20
38788;DHT22;24536;45.488;12.238;2023-03-23T09:15:59;18.30;76.50
38788;DHT22;24536;45.488;12.238;2023-03-23T09:18:25;18.40;76.20
38788;DHT22;24536;45.488;12.238;2023-03-23T09:20:53;18.50;75.70
38788;DHT22;24536;45.488;12.238;2023-03-23T09:23:19;18.70;75.60
38788;DHT22;24536;45.488;12.238;2023-03-23T09:25:46;18.90;75.00
38788;DHT22;24536;45.488;12.238;2023-03-23T09:28:13;18.90;74.10
38788;DHT22;24536;45.488;12.238;2023-03-23T09:30:40;18.90;73.80
38788;DHT22;24536;45.488;12.238;2023-03-23T09:33:07;19.00;74.20
38788;DHT22;24536;45.488;12.238;2023-03-23T09:35:34;18.90;74.00
38788;DHT22;24536;45.488;12.238;2023-03-23T09:38:01;19.00;74.00
38788;DHT22;24536;45.488;12.238;2023-03-23T09:53:45;19.40;73.50
38788;DHT22;24536;45.488;12.238;2023-03-23T09:56:14;19.60;73.30
38788;DHT22;24536;45.488;12.238;2023-03-23T10:01:38;19.90;72.40
38788;DHT22;24536;45.488;12.238;2023-03-23T10:06:56;20.50;72.20
38788;DHT22;24536;45.488;12.238;2023-03-23T10:09:23;20.70;71.20
38788;DHT22;24536;45.488;12.238;2023-03-23T10:17:42;20.70;65.60
38788;DHT22;24536;45.488;12.238;2023-03-23T10:25:19;20.50;67.40
38788;DHT22;24536;45.488;12.238;2023-03-23T10:33:05;20.80;65.50
38788;DHT22;24536;45.488;12.238;2023-03-23T10:35:36;20.90;65.20
38788;DHT22;24536;45.488;12.238;2023-03-23T10:38:13;21.10;64.10
38788;DHT22;24536;45.488;12.238;2023-03-23T10:40:53;21.20;63.30
38788;DHT22;24536;45.488;12.238;2023-03-23T10:43:20;21.30;62.70
38788;DHT22;24536;45.488;12.238;2023-03-23T10:45:51;21.50;62.50
38788;DHT22;24536;45.488;12.238;2023-03-23T10:48:29;21.60;62.00
38788;DHT22;24536;45.488;12.238;2023-03-23T10:51:00;21.80;61.60
38788;DHT22;24536;45.488;12.238;2023-03-23T10:53:34;21.90;60.80
38788;DHT22;24536;45.488;12.238;2023-03-23T10:56:01;22.10;60.20
38788;DHT22;24536;45.488;12.238;2023-03-23T10:58:30;22.10;59.40
38788;DHT22;24536;45.488;12.238;2023-03-23T11:00:58;22.10;59.40
38788;DHT22;24536;45.488;12.238;2023-03-23T11:03:47;22.20;59.60
38788;DHT22;24536;45.488;12.238;2023-03-23T11:06:32;22.30;59.00
38788;DHT22;24536;45.488;12.238;2023-03-23T11:09:08;22.30;59.30
38788;DHT22;24536;45.488;12.238;2023-03-23T11:11:38;22.30;59.20
38788;DHT22;24536;45.488;12.238;2023-03-23T11:16:59;22.40;57.60
38788;DHT22;24536;45.488;12.238;2023-03-23T11:19:31;22.50;57.30
38788;DHT22;24536;45.488;12.238;2023-03-23T11:22:07;22.60;56.90
38788;DHT22;24536;45.488;12.238;2023-03-23T11:24:46;22.70;57.00
38788;DHT22;24536;45.488;12.238;2023-03-23T11:27:14;23.00;56.20
38788;DHT22;24536;45.488;12.238;2023-03-23T11:30:07;23.20;56.00
38788;DHT22;24536;45.488;12.238;2023-03-23T11:32:34;23.50;54.80
38788;DHT22;24536;45.488;12.238;2023-03-23T11:35:04;23.80;54.60
38788;DHT22;24536;45.488;12.238;2023-03-23T11:37:38;24.10;54.50
38788;DHT22;24536;45.488;12.238;2023-03-23T11:42:43;24.90;53.40
38788;DHT22;24536;45.488;12.238;2023-03-23T11:51:11;26.70;49.60
38788;DHT22;24536;45.488;12.238;2023-03-23T11:53:54;26.60;48.90
38788;DHT22;24536;45.488;12.238;2023-03-23T11:56:31;27.10;49.30
38788;DHT22;24536;45.488;12.238;2023-03-23T11:58:59;28.00;48.00
38788;DHT22;24536;45.488;12.238;2023-03-23T12:18:06;30.40;43.40
38788;DHT22;24536;45.488;12.238;2023-03-23T12:31:17;26.90;47.10
38788;DHT22;24536;45.488;12.238;2023-03-23T12:46:02;26.20;49.80
38788;DHT22;24536;45.488;12.238;2023-03-23T12:48:46;26.50;49.30
38788;DHT22;24536;45.488;12.238;2023-03-23T12:56:57;27.50;46.80
38788;DHT22;24536;45.488;12.238;2023-03-23T12:59:41;28.10;46.10
38788;DHT22;24536;45.488;12.238;2023-03-23T13:02:28;28.60;44.50
38788;DHT22;24536;45.488;12.238;2023-03-23T13:05:27;29.10;43.00
38788;DHT22;24536;45.488;12.238;2023-03-23T13:08:16;29.30;42.80
38788;DHT22;24536;45.488;12.238;2023-03-23T13:10:49;29.40;41.60
38788;DHT22;24536;45.488;12.238;2023-03-23T13:13:24;29.40;42.00
38788;DHT22;24536;45.488;12.238;2023-03-23T13:16:15;29.40;41.70
38788;DHT22;24536;45.488;12.238;2023-03-23T13:21:32;28.60;41.70
38788;DHT22;24536;45.488;12.238;2023-03-23T13:24:20;28.00;41.60
38788;DHT22;24536;45.488;12.238;2023-03-23T13:26:49;27.30;42.90
38788;DHT22;24536;45.488;12.238;2023-03-23T13:29:18;26.70;43.50
38788;DHT22;24536;45.488;12.238;2023-03-23T13:31:46;26.30;44.10
38788;DHT22;24536;45.488;12.238;2023-03-23T13:34:20;25.80;44.70
38788;DHT22;24536;45.488;12.238;2023-03-23T13:37:04;25.30;45.40
38788;DHT22;24536;45.488;12.238;2023-03-23T14:05:45;22.90;52.00
38788;DHT22;24536;45.488;12.238;2023-03-23T14:13:36;22.60;52.80
38788;DHT22;24536;45.488;12.238;2023-03-23T14:16:05;22.60;53.30
38788;DHT22;24536;45.488;12.238;2023-03-23T14:18:40;22.50;53.50
38788;DHT22;24536;45.488;12.238;2023-03-23T14:21:14;22.50;53.60
38788;DHT22;24536;45.488;12.238;2023-03-23T14:23:41;22.40;53.50
38788;DHT22;24536;45.488;12.238;2023-03-23T14:26:17;22.30;53.40
38788;DHT22;24536;45.488;12.238;2023-03-23T14:28:49;22.30;53.60
38788;DHT22;24536;45.488;12.238;2023-03-23T14:31:22;22.20;53.60
38788;DHT22;24536;45.488;12.238;2023-03-23T14:33:49;22.10;54.00
38788;DHT22;24536;45.488;12.238;2023-03-23T14:36:35;22.10;54.50
38788;DHT22;24536;45.488;12.238;2023-03-23T14:39:18;22.10;54.50
38788;DHT22;24536;45.488;12.238;2023-03-23T14:41:45;22.00;54.60
38788;DHT22;24536;45.488;12.238;2023-03-23T14:44:15;22.00;55.10
38788;DHT22;24536;45.488;12.238;2023-03-23T14:46:43;21.90;55.10
38788;DHT22;24536;45.488;12.238;2023-03-23T14:49:16;21.90;55.20
38788;DHT22;24536;45.488;12.238;2023-03-23T14:51:53;21.80;55.70
38788;DHT22;24536;45.488;12.238;2023-03-23T14:54:26;21.80;56.00
38788;DHT22;24536;45.488;12.238;2023-03-23T14:56:54;21.80;56.10
38788;DHT22;24536;45.488;12.238;2023-03-23T14:59:20;21.80;56.50
38788;DHT22;24536;45.488;12.238;2023-03-23T15:01:47;21.80;56.50
38788;DHT22;24536;45.488;12.238;2023-03-23T15:04:21;21.70;56.70
38788;DHT22;24536;45.488;12.238;2023-03-23T15:06:55;21.70;57.30
38788;DHT22;24536;45.488;12.238;2023-03-23T15:09:22;21.70;58.00
38788;DHT22;24536;45.488;12.238;2023-03-23T15:12:03;21.70;58.50
38788;DHT22;24536;45.488;12.238;2023-03-23T15:14:45;21.70;59.10
38788;DHT22;24536;45.488;12.238;2023-03-23T15:17:22;21.80;59.50
38788;DHT22;24536;45.488;12.238;2023-03-23T15:19:49;21.70;59.70
38788;DHT22;24536;45.488;12.238;2023-03-23T15:24:41;21.60;60.00
38788;DHT22;24536;45.488;12.238;2023-03-23T15:27:30;21.50;60.30
38788;DHT22;24536;45.488;12.238;2023-03-23T15:29:58;21.50;60.60
38788;DHT22;24536;45.488;12.238;2023-03-23T15:32:36;21.40;60.40
38788;DHT22;24536;45.488;12.238;2023-03-23T15:35:10;21.40;60.90
38788;DHT22;24536;45.488;12.238;2023-03-23T15:37:42;21.30;61.30
38788;DHT22;24536;45.488;12.238;2023-03-23T15:40:16;21.30;61.70
38788;DHT22;24536;45.488;12.238;2023-03-23T15:42:42;21.20;65.40
38788;DHT22;24536;45.488;12.238;2023-03-23T15:53:00;21.10;62.50
38788;DHT22;24536;45.488;12.238;2023-03-23T15:55:37;21.00;63.20
38788;DHT22;24536;45.488;12.238;2023-03-23T15:58:11;21.00;63.60
38788;DHT22;24536;45.488;12.238;2023-03-23T16:00:38;21.10;73.00
38788;DHT22;24536;45.488;12.238;2023-03-23T16:03:07;20.80;64.10
38788;DHT22;24536;45.488;12.238;2023-03-23T16:08:00;20.80;64.40
38788;DHT22;24536;45.488;12.238;2023-03-23T16:10:28;20.70;65.00
38788;DHT22;24536;45.488;12.238;2023-03-23T16:12:53;20.60;65.10
38788;DHT22;24536;45.488;12.238;2023-03-23T16:15:19;20.60;65.90
38788;DHT22;24536;45.488;12.238;2023-03-23T16:17:45;20.50;66.40
38788;DHT22;24536;45.488;12.238;2023-03-23T16:20:14;20.40;66.80
38788;DHT22;24536;45.488;12.238;2023-03-23T16:22:41;20.40;67.10
38788;DHT22;24536;45.488;12.238;2023-03-23T16:25:08;20.30;67.30
38788;DHT22;24536;45.488;12.238;2023-03-23T16:27:34;20.20;67.50
38788;DHT22;24536;45.488;12.238;2023-03-23T16:30:01;20.20;67.80
38788;DHT22;24536;45.488;12.238;2023-03-23T16:32:28;20.10;67.80
38788;DHT22;24536;45.488;12.238;2023-03-23T16:34:54;20.10;67.90
38788;DHT22;24536;45.488;12.238;2023-03-23T16:37:20;20.00;67.80
38788;DHT22;24536;45.488;12.238;2023-03-23T16:39:46;20.00;68.10
38788;DHT22;24536;45.488;12.238;2023-03-23T16:44:38;19.80;67.80
38788;DHT22;24536;45.488;12.238;2023-03-23T16:47:03;19.80;68.00
38788;DHT22;24536;45.488;12.238;2023-03-23T16:49:29;19.70;68.50
38788;DHT22;24536;45.488;12.238;2023-03-23T16:51:55;19.70;68.30
38788;DHT22;24536;45.488;12.238;2023-03-23T16:54:20;19.60;86.40
38788;DHT22;24536;45.488;12.238;2023-03-23T16:56:46;19.60;68.20
38788;DHT22;24536;45.488;12.238;2023-03-23T16:59:13;19.50;68.30
38788;DHT22;24536;45.488;12.238;2023-03-23T17:01:39;19.60;69.10
38788;DHT22;24536;45.488;12.238;2023-03-23T17:04:05;19.50;69.50
38788;DHT22;24536;45.488;12.238;2023-03-23T17:06:31;19.40;69.80
38788;DHT22;24536;45.488;12.238;2023-03-23T17:08:57;19.40;70.20
38788;DHT22;24536;45.488;12.238;2023-03-23T17:11:22;19.30;70.50
38788;DHT22;24536;45.488;12.238;2023-03-23T17:13:48;19.30;70.60
38788;DHT22;24536;45.488;12.238;2023-03-23T17:16:14;19.30;71.30
38788;DHT22;24536;45.488;12.238;2023-03-23T17:18:39;19.20;71.60
38788;DHT22;24536;45.488;12.238;2023-03-23T17:21:05;19.20;72.00
38788;DHT22;24536;45.488;12.238;2023-03-23T17:23:31;19.20;72.40
38788;DHT22;24536;45.488;12.238;2023-03-23T17:25:57;19.10;72.60
38788;DHT22;24536;45.488;12.238;2023-03-23T17:28:23;19.10;73.10
38788;DHT22;24536;45.488;12.238;2023-03-23T17:30:50;19.00;73.50
38788;DHT22;24536;45.488;12.238;2023-03-23T17:33:17;19.00;73.80
38788;DHT22;24536;45.488;12.238;2023-03-23T17:35:45;18.90;74.00
38788;DHT22;24536;45.488;12.238;2023-03-23T17:38:11;18.90;74.30
38788;DHT22;24536;45.488;12.238;2023-03-23T17:40:36;18.80;74.60
38788;DHT22;24536;45.488;12.238;2023-03-23T17:43:03;18.80;74.90
38788;DHT22;24536;45.488;12.238;2023-03-23T17:45:29;18.70;74.70
38788;DHT22;24536;45.488;12.238;2023-03-23T17:47:55;18.70;76.10
38788;DHT22;24536;45.488;12.238;2023-03-23T17:50:20;18.70;76.20
38788;DHT22;24536;45.488;12.238;2023-03-23T17:52:46;18.60;76.60
38788;DHT22;24536;45.488;12.238;2023-03-23T17:55:14;18.60;77.00
38788;DHT22;24536;45.488;12.238;2023-03-23T17:57:40;18.60;77.40
38788;DHT22;24536;45.488;12.238;2023-03-23T18:00:06;18.50;77.80
38788;DHT22;24536;45.488;12.238;2023-03-23T18:02:34;18.40;77.50
38788;DHT22;24536;45.488;12.238;2023-03-23T18:04:59;18.50;78.30
38788;DHT22;24536;45.488;12.238;2023-03-23T18:07:26;18.40;78.10
38788;DHT22;24536;45.488;12.238;2023-03-23T18:09:51;18.40;78.10
38788;DHT22;24536;45.488;12.238;2023-03-23T18:12:17;18.40;78.10
38788;DHT22;24536;45.488;12.238;2023-03-23T18:14:43;18.40;78.80
38788;DHT22;24536;45.488;12.238;2023-03-23T18:17:09;18.30;78.60
38788;DHT22;24536;45.488;12.238;2023-03-23T18:19:35;18.20;78.50
38788;DHT22;24536;45.488;12.238;2023-03-23T18:22:01;18.30;78.50